createdAt,value
2019-04-16T00:02:35.502Z,3.50
2019-04-16T00:05:27.770Z,3.40
2019-04-16T00:08:27.109Z,3.40
2019-04-16T00:11:08.090Z,3.40
2019-04-16T00:14:21.602Z,3.30
2019-04-16T00:17:06.870Z,3.20
2019-04-16T00:19:52.347Z,3.20
2019-04-16T00:22:43.346Z,3.20
2019-04-16T00:25:28.822Z,3.20
2019-04-16T00:28:14.141Z,3.30
2019-04-16T00:30:59.255Z,3.20
2019-04-16T00:33:44.790Z,3.20
2019-04-16T00:36:30.094Z,3.30
2019-04-16T00:39:15.355Z,3.30
2019-04-16T00:42:00.430Z,3.30
2019-04-16T00:44:45.758Z,3.30
2019-04-16T00:47:31.482Z,3.30
2019-04-16T00:50:16.549Z,3.30
2019-04-16T00:53:02.020Z,3.20
2019-04-16T00:55:47.307Z,3.10
2019-04-16T00:58:32.658Z,3.00
2019-04-16T01:01:17.930Z,2.90
2019-04-16T01:04:03.335Z,2.90
2019-04-16T01:06:49.276Z,2.90
2019-04-16T01:09:34.963Z,2.90
2019-04-16T01:12:20.547Z,2.90
2019-04-16T01:15:05.886Z,2.80
2019-04-16T01:17:50.974Z,2.80
2019-04-16T01:20:36.330Z,2.70
2019-04-16T01:23:21.881Z,2.70
2019-04-16T01:26:07.403Z,2.60
2019-04-16T01:29:02.652Z,2.50
2019-04-16T01:32:11.373Z,2.40
2019-04-16T01:35:19.730Z,2.40
2019-04-16T01:38:34.241Z,2.30
2019-04-16T01:41:22.062Z,2.20
2019-04-16T01:44:07.030Z,2.20
2019-04-16T01:46:52.176Z,2.10
2019-04-16T01:49:39.302Z,2.10
2019-04-16T01:52:24.822Z,2.00
2019-04-16T01:55:10.134Z,2.00
2019-04-16T01:57:55.914Z,2.00
2019-04-16T02:00:41.408Z,1.90
2019-04-16T02:03:27.170Z,1.90
2019-04-16T02:06:12.422Z,1.90
2019-04-16T02:09:01.710Z,1.90
2019-04-16T02:11:44.906Z,1.90
2019-04-16T02:14:30.091Z,1.90
2019-04-16T02:17:15.417Z,1.90
2019-04-16T02:20:02.120Z,1.90
2019-04-16T02:22:48.864Z,1.80
2019-04-16T02:25:34.805Z,1.80
2019-04-16T02:28:21.737Z,1.80
2019-04-16T02:31:13.808Z,1.70
2019-04-16T02:33:54.410Z,1.70
2019-04-16T02:36:39.727Z,1.70
2019-04-16T02:39:46.302Z,1.70
2019-04-16T02:42:13.133Z,1.60
2019-04-16T02:44:58.788Z,1.60
2019-04-16T02:47:44.242Z,1.60
2019-04-16T02:50:42.219Z,1.60
2019-04-16T02:53:38.451Z,1.50
2019-04-16T02:56:32.125Z,1.50
2019-04-16T02:59:26.899Z,1.50
2019-04-16T03:02:30.546Z,1.50
2019-04-16T03:05:28.985Z,1.50
2019-04-16T03:08:14.337Z,1.50
2019-04-16T03:10:59.653Z,1.40
2019-04-16T03:13:45.157Z,1.50
2019-04-16T03:16:56.227Z,1.40
2019-04-16T03:19:42.611Z,1.50
2019-04-16T03:22:30.618Z,1.40
2019-04-16T03:25:15.498Z,1.40
2019-04-16T03:28:01.077Z,1.40
2019-04-16T03:30:46.959Z,1.40
2019-04-16T03:33:32.019Z,1.40
2019-04-16T03:36:17.698Z,1.40
2019-04-16T03:39:05.579Z,1.30
2019-04-16T03:41:50.595Z,1.40
2019-04-16T03:44:37.235Z,1.40
2019-04-16T03:47:23.378Z,1.30
2019-04-16T03:50:09.267Z,1.30
2019-04-16T03:52:54.698Z,1.30
2019-04-16T03:55:39.705Z,1.30
2019-04-16T03:58:24.822Z,1.20
2019-04-16T04:01:10.439Z,1.10
2019-04-16T04:03:57.584Z,1.00
2019-04-16T04:06:43.156Z,1.00
2019-04-16T04:09:28.235Z,1.00
2019-04-16T04:12:14.324Z,1.00
2019-04-16T04:15:00.468Z,1.10
2019-04-16T04:17:45.600Z,1.10
2019-04-16T04:20:30.846Z,1.00
2019-04-16T04:23:15.966Z,1.00
2019-04-16T04:26:01.511Z,1.00
2019-04-16T04:28:48.557Z,1.10
2019-04-16T04:31:34.400Z,1.10
2019-04-16T04:34:19.683Z,1.10
2019-04-16T04:37:05.444Z,1.10
2019-04-16T04:39:50.855Z,1.10
2019-04-16T04:42:35.946Z,1.10
2019-04-16T04:45:21.171Z,1.10
2019-04-16T04:48:06.711Z,1.20
2019-04-16T04:50:52.951Z,1.30
2019-04-16T04:53:38.430Z,1.30
2019-04-16T04:56:27.652Z,1.30
2019-04-16T04:59:10.978Z,1.40
2019-04-16T05:01:56.182Z,1.50
2019-04-16T05:04:59.879Z,1.60
2019-04-16T05:07:45.034Z,1.70
2019-04-16T05:10:30.381Z,1.80
2019-04-16T05:13:15.774Z,1.90
2019-04-16T05:16:01.929Z,2.00
2019-04-16T05:18:47.685Z,2.10
2019-04-16T05:21:32.741Z,2.20
2019-04-16T05:24:18.245Z,2.30
2019-04-16T05:27:05.494Z,2.40
2019-04-16T05:29:50.570Z,2.50
2019-04-16T05:32:36.234Z,2.60
2019-04-16T05:35:21.586Z,2.70
2019-04-16T05:38:07.295Z,2.90
2019-04-16T05:40:52.238Z,3.10
2019-04-16T05:43:37.311Z,3.30
2019-04-16T05:46:22.598Z,3.50
2019-04-16T05:49:08.062Z,3.70
2019-04-16T05:51:53.319Z,4.00
2019-04-16T05:55:17.677Z,4.20
2019-04-16T05:58:03.782Z,4.60
2019-04-16T06:00:58.058Z,5.00
2019-04-16T06:03:43.582Z,5.30
2019-04-16T06:06:31.786Z,5.60
2019-04-16T06:09:15.950Z,5.90
2019-04-16T06:12:01.694Z,6.00
2019-04-16T06:14:54.811Z,6.30
2019-04-16T06:17:45.619Z,6.50
2019-04-16T06:20:39.350Z,6.70
2019-04-16T06:23:48.429Z,6.90
2019-04-16T06:26:44.506Z,7.10
2019-04-16T06:29:39.602Z,7.20
2019-04-16T06:32:43.091Z,7.40
2019-04-16T06:35:50.171Z,7.50
2019-04-16T06:38:55.008Z,8.00
2019-04-16T06:42:01.547Z,8.40
2019-04-16T06:44:48.529Z,8.40
2019-04-16T06:48:00.611Z,8.70
2019-04-16T06:51:17.691Z,9.10
2019-04-16T06:54:20.679Z,9.70
2019-04-16T06:57:21.937Z,10.10
2019-04-16T07:00:25.499Z,10.20
2019-04-16T07:03:32.395Z,10.90
2019-04-16T07:06:36.341Z,11.30
2019-04-16T07:09:41.812Z,11.90
2019-04-16T07:12:29.561Z,12.50
2019-04-16T07:15:14.346Z,12.20
2019-04-16T07:17:59.238Z,12.10
2019-04-16T07:20:45.739Z,12.50
2019-04-16T07:23:31.790Z,13.20
2019-04-16T07:26:17.177Z,13.70
2019-04-16T07:29:07.925Z,13.80
2019-04-16T07:32:12.731Z,14.20
2019-04-16T07:35:04.299Z,14.40
2019-04-16T07:37:57.446Z,15.10
2019-04-16T07:41:12.316Z,15.60
2019-04-16T07:44:08.105Z,15.80
2019-04-16T07:47:05.372Z,15.70
2019-04-16T07:50:05.042Z,15.90
2019-04-16T07:53:01.178Z,16.60
2019-04-16T07:55:55.226Z,16.80
2019-04-16T07:58:40.480Z,17.00
2019-04-16T08:01:25.727Z,17.00
2019-04-16T08:04:11.451Z,17.50
2019-04-16T08:06:56.547Z,16.90
2019-04-16T08:09:41.676Z,16.30
2019-04-16T08:12:30.273Z,16.90
2019-04-16T08:15:15.376Z,17.10
2019-04-16T08:18:01.062Z,17.60
2019-04-16T08:21:00.034Z,18.00
2019-04-16T08:23:39.614Z,18.20
2019-04-16T08:26:24.951Z,17.80
2019-04-16T08:29:10.444Z,18.30
2019-04-16T08:31:55.743Z,19.00
2019-04-16T08:34:41.370Z,19.50
2019-04-16T08:37:26.658Z,20.20
2019-04-16T08:40:12.215Z,21.00
2019-04-16T08:42:58.688Z,21.10
2019-04-16T08:45:44.133Z,21.30
2019-04-16T08:48:29.357Z,20.90
2019-04-16T08:51:29.303Z,20.10
2019-04-16T08:54:02.386Z,20.10
2019-04-16T08:56:47.515Z,20.60
2019-04-16T08:59:33.070Z,20.10
2019-04-16T09:02:18.294Z,19.60
2019-04-16T09:05:06.264Z,19.80
2019-04-16T09:07:51.682Z,19.80
2019-04-16T09:10:36.590Z,20.40
2019-04-16T09:13:26.186Z,20.40
2019-04-16T09:16:11.986Z,20.70
2019-04-16T09:19:03.174Z,21.20
2019-04-16T09:21:48.234Z,20.00
2019-04-16T09:24:40.719Z,19.00
2019-04-16T09:27:36.170Z,20.00
2019-04-16T09:30:37.567Z,20.90
2019-04-16T09:33:30.377Z,21.90
2019-04-16T09:36:46.422Z,22.60
2019-04-16T09:39:57.474Z,22.90
2019-04-16T09:42:42.602Z,22.20
2019-04-16T09:45:27.754Z,22.10
2019-04-16T09:48:13.590Z,21.50
2019-04-16T09:50:59.778Z,20.50
2019-04-16T09:53:44.846Z,21.40
2019-04-16T09:56:30.938Z,22.70
2019-04-16T09:59:24.283Z,24.00
2019-04-16T10:02:15.606Z,24.20
2019-04-16T10:05:00.868Z,23.50
2019-04-16T10:07:46.079Z,23.70
2019-04-16T10:10:31.266Z,24.60
2019-04-16T10:13:29.432Z,25.20
2019-04-16T10:16:04.295Z,23.70
2019-04-16T10:18:49.978Z,23.20
2019-04-16T10:21:35.546Z,23.70
2019-04-16T10:24:39.775Z,25.00
2019-04-16T10:27:32.594Z,24.70
2019-04-16T10:30:30.027Z,23.80
2019-04-16T10:33:15.216Z,24.60
2019-04-16T10:36:04.206Z,24.00
2019-04-16T10:38:58.321Z,24.20
2019-04-16T10:41:47.174Z,24.00
2019-04-16T10:44:50.668Z,24.80
2019-04-16T10:47:48.854Z,24.90
2019-04-16T10:50:42.295Z,26.10
2019-04-16T10:53:46.071Z,26.60
2019-04-16T10:56:49.650Z,23.90
2019-04-16T11:00:03.169Z,23.40
2019-04-16T11:02:53.129Z,22.90
2019-04-16T11:05:44.669Z,23.80
2019-04-16T11:08:30.169Z,24.90
2019-04-16T11:11:14.996Z,24.80
2019-04-16T11:14:00.655Z,23.80
2019-04-16T11:16:49.030Z,22.60
2019-04-16T11:19:34.205Z,23.20
2019-04-16T11:22:19.450Z,24.40
2019-04-16T11:25:05.073Z,25.40
2019-04-16T11:27:50.505Z,26.20
2019-04-16T11:30:43.742Z,25.20
2019-04-16T11:33:29.550Z,25.00
2019-04-16T11:36:19.805Z,24.90
2019-04-16T11:39:01.900Z,25.10
2019-04-16T11:41:47.790Z,26.80
2019-04-16T11:44:33.051Z,26.60
2019-04-16T11:47:18.663Z,26.50
2019-04-16T11:50:04.028Z,26.50
2019-04-16T11:52:48.971Z,25.90
2019-04-16T11:55:34.360Z,25.50
2019-04-16T11:58:27.086Z,25.70
2019-04-16T12:01:22.909Z,26.70
2019-04-16T12:04:18.015Z,25.70
2019-04-16T12:07:38.756Z,24.50
2019-04-16T12:10:43.315Z,24.00
2019-04-16T12:13:46.774Z,24.10
2019-04-16T12:16:50.223Z,25.60
2019-04-16T12:19:53.841Z,25.80
2019-04-16T12:22:45.589Z,24.80
2019-04-16T12:25:40.561Z,24.80
2019-04-16T12:28:35.291Z,25.10
2019-04-16T12:31:38.182Z,25.70
2019-04-16T12:34:45.862Z,25.50
2019-04-16T12:37:49.570Z,25.20
2019-04-16T12:40:49.694Z,25.70
2019-04-16T12:43:41.341Z,25.80
2019-04-16T12:46:36.978Z,26.70
2019-04-16T12:49:40.948Z,26.70
2019-04-16T12:52:43.863Z,25.10
2019-04-16T12:55:47.842Z,25.40
2019-04-16T12:58:43.855Z,25.70
2019-04-16T13:01:38.509Z,26.50
2019-04-16T13:04:48.886Z,27.00
2019-04-16T13:07:54.616Z,27.00
2019-04-16T13:10:58.094Z,26.10
2019-04-16T13:13:55.387Z,25.30
2019-04-16T13:16:59.342Z,25.00
2019-04-16T13:20:08.350Z,24.90
2019-04-16T13:22:55.870Z,25.10
2019-04-16T13:25:50.042Z,25.40
2019-04-16T13:28:35.230Z,25.10
2019-04-16T13:31:20.470Z,24.60
2019-04-16T13:34:06.254Z,24.20
2019-04-16T13:36:51.831Z,24.40
2019-04-16T13:39:54.186Z,24.90
2019-04-16T13:42:39.766Z,24.80
2019-04-16T13:45:30.778Z,24.90
2019-04-16T13:48:31.850Z,25.10
2019-04-16T13:51:20.134Z,25.00
2019-04-16T13:54:34.401Z,24.30
2019-04-16T13:57:21.455Z,23.70
2019-04-16T14:00:18.212Z,23.10
2019-04-16T14:03:07.674Z,24.10
2019-04-16T14:05:52.834Z,24.20
2019-04-16T14:08:38.202Z,23.90
2019-04-16T14:11:23.883Z,23.40
2019-04-16T14:14:09.294Z,23.50
2019-04-16T14:16:54.525Z,23.60
2019-04-16T14:19:39.715Z,24.70
2019-04-16T14:22:24.498Z,24.30
2019-04-16T14:25:10.233Z,23.90
2019-04-16T14:27:55.937Z,23.10
2019-04-16T14:30:45.587Z,23.50
2019-04-16T14:33:53.284Z,22.90
2019-04-16T14:36:38.423Z,22.30
2019-04-16T14:39:38.773Z,21.60
2019-04-16T14:42:24.413Z,21.80
2019-04-16T14:45:22.062Z,22.10
2019-04-16T14:48:08.919Z,21.80
2019-04-16T14:50:54.543Z,21.40
2019-04-16T14:54:02.250Z,20.50
2019-04-16T14:56:50.884Z,20.20
2019-04-16T14:59:54.602Z,20.30
2019-04-16T15:02:47.043Z,21.00
2019-04-16T15:05:47.681Z,21.60
2019-04-16T15:08:51.518Z,22.10
2019-04-16T15:11:57.861Z,22.40
2019-04-16T15:14:47.222Z,22.50
2019-04-16T15:17:51.314Z,22.20
2019-04-16T15:20:55.131Z,21.10
2019-04-16T15:24:01.649Z,20.80
2019-04-16T15:27:06.271Z,20.30
2019-04-16T15:29:57.731Z,19.60
2019-04-16T15:33:05.538Z,19.40
2019-04-16T15:36:08.271Z,19.80
2019-04-16T15:38:59.351Z,20.10
2019-04-16T15:42:19.342Z,20.10
2019-04-16T15:45:11.518Z,18.90
2019-04-16T15:48:25.303Z,18.40
2019-04-16T15:51:17.579Z,18.40
2019-04-16T15:54:20.990Z,18.70
2019-04-16T15:57:24.460Z,18.80
2019-04-16T16:00:20.556Z,18.50
2019-04-16T16:03:43.359Z,18.60
2019-04-16T16:06:29.406Z,18.60
2019-04-16T16:09:27.418Z,18.20
2019-04-16T16:12:16.369Z,17.90
2019-04-16T16:15:01.788Z,17.80
2019-04-16T16:17:47.219Z,17.70
2019-04-16T16:20:32.691Z,17.60
2019-04-16T16:23:17.798Z,17.40
2019-04-16T16:26:02.927Z,17.60
2019-04-16T16:28:48.172Z,17.50
2019-04-16T16:31:35.590Z,17.20
2019-04-16T16:34:20.651Z,17.10
2019-04-16T16:37:05.826Z,16.90
2019-04-16T16:39:50.906Z,16.70
2019-04-16T16:42:36.886Z,16.50
2019-04-16T16:45:26.634Z,16.40
2019-04-16T16:48:12.050Z,16.30
2019-04-16T16:50:57.302Z,16.00
2019-04-16T16:54:03.859Z,15.80
2019-04-16T16:57:03.493Z,15.70
2019-04-16T16:59:54.610Z,15.20
2019-04-16T17:02:44.114Z,14.90
2019-04-16T17:05:31.759Z,14.60
2019-04-16T17:08:17.037Z,14.30
2019-04-16T17:11:14.596Z,13.90
2019-04-16T17:13:49.258Z,13.70
2019-04-16T17:16:34.411Z,13.50
2019-04-16T17:19:19.618Z,13.30
2019-04-16T17:22:04.770Z,13.10
2019-04-16T17:24:49.881Z,12.90
2019-04-16T17:27:50.264Z,12.80
2019-04-16T17:30:23.258Z,12.60
2019-04-16T17:33:08.831Z,12.60
2019-04-16T17:35:54.188Z,12.50
2019-04-16T17:38:39.633Z,12.30
2019-04-16T17:41:29.966Z,12.20
2019-04-16T17:44:35.390Z,12.00
2019-04-16T17:47:49.366Z,11.80
2019-04-16T17:50:52.820Z,11.70
2019-04-16T17:54:03.607Z,11.50
2019-04-16T17:57:10.730Z,11.30
2019-04-16T18:00:04.565Z,11.10
2019-04-16T18:03:03.049Z,11.00
2019-04-16T18:06:06.327Z,10.80
2019-04-16T18:09:13.803Z,10.70
2019-04-16T18:12:08.810Z,10.60
2019-04-16T18:14:59.733Z,10.30
2019-04-16T18:17:51.547Z,10.20
2019-04-16T18:20:58.739Z,10.10
2019-04-16T18:24:01.151Z,10.00
2019-04-16T18:26:59.255Z,9.90
2019-04-16T18:29:49.941Z,9.80
2019-04-16T18:32:44.202Z,9.80
2019-04-16T18:35:44.199Z,9.70
2019-04-16T18:38:40.078Z,9.60
2019-04-16T18:41:51.271Z,9.50
2019-04-16T18:44:56.174Z,9.50
2019-04-16T18:48:01.609Z,9.40
2019-04-16T18:50:37.035Z,9.40
2019-04-16T18:53:22.710Z,9.30
2019-04-16T18:56:07.958Z,9.30
2019-04-16T18:58:53.763Z,9.30
2019-04-16T19:01:40.870Z,9.30
2019-04-16T19:04:25.993Z,9.20
2019-04-16T19:07:11.100Z,9.20
2019-04-16T19:09:56.619Z,9.10
2019-04-16T19:12:41.848Z,9.00
2019-04-16T19:15:27.590Z,9.10
2019-04-16T19:18:19.783Z,9.00
2019-04-16T19:21:00.082Z,8.90
2019-04-16T19:23:45.538Z,8.90
2019-04-16T19:26:31.059Z,8.80
2019-04-16T19:29:17.038Z,8.70
2019-04-16T19:32:03.023Z,8.50
2019-04-16T19:34:48.293Z,8.50
2019-04-16T19:37:34.063Z,8.40
2019-04-16T19:40:19.754Z,8.40
2019-04-16T19:43:04.940Z,8.40
2019-04-16T19:45:49.762Z,8.30
2019-04-16T19:48:36.250Z,8.30
2019-04-16T19:51:21.847Z,8.20
2019-04-16T19:54:06.867Z,8.30
2019-04-16T19:56:52.095Z,8.30
2019-04-16T19:59:37.453Z,8.20
2019-04-16T20:02:23.102Z,8.20
2019-04-16T20:05:08.528Z,8.10
2019-04-16T20:07:53.953Z,8.10
2019-04-16T20:10:39.863Z,8.00
2019-04-16T20:13:24.717Z,8.00
2019-04-16T20:16:09.887Z,8.00
2019-04-16T20:18:55.171Z,7.90
2019-04-16T20:21:40.830Z,7.90
2019-04-16T20:24:26.638Z,7.80
2019-04-16T20:27:11.859Z,7.80
2019-04-16T20:29:57.353Z,7.70
2019-04-16T20:32:42.590Z,7.80
2019-04-16T20:35:27.438Z,7.70
2019-04-16T20:38:12.535Z,7.70
2019-04-16T20:40:58.026Z,7.60
2019-04-16T20:43:43.786Z,7.50
2019-04-16T20:46:29.081Z,7.50
2019-04-16T20:49:16.962Z,7.50
2019-04-16T20:52:02.347Z,7.40
2019-04-16T20:54:53.053Z,7.30
2019-04-16T20:57:39.180Z,7.20
2019-04-16T21:00:27.890Z,7.20
2019-04-16T21:03:21.814Z,7.30
2019-04-16T21:06:00.691Z,7.30
2019-04-16T21:08:45.954Z,7.40
2019-04-16T21:11:31.226Z,7.40
2019-04-16T21:14:18.964Z,7.30
2019-04-16T21:17:06.866Z,7.30
2019-04-16T21:19:51.306Z,7.30
2019-04-16T21:22:36.782Z,7.30
2019-04-16T21:25:22.218Z,7.30
2019-04-16T21:28:13.782Z,7.30
2019-04-16T21:31:06.527Z,7.20
2019-04-16T21:34:07.275Z,7.20
2019-04-16T21:37:12.678Z,7.20
2019-04-16T21:40:00.151Z,7.20
2019-04-16T21:42:45.274Z,7.10
2019-04-16T21:45:30.414Z,7.10
2019-04-16T21:48:15.668Z,7.00
2019-04-16T21:51:01.216Z,7.00
2019-04-16T21:53:46.343Z,6.90
2019-04-16T21:56:31.463Z,6.90
2019-04-16T21:59:21.098Z,6.80
2019-04-16T22:02:13.771Z,6.70
2019-04-16T22:04:58.566Z,6.60
2019-04-16T22:07:44.250Z,6.60
2019-04-16T22:10:29.386Z,6.50
2019-04-16T22:13:19.163Z,6.40
2019-04-16T22:16:01.329Z,6.30
2019-04-16T22:18:46.962Z,6.20
2019-04-16T22:21:31.952Z,6.20
2019-04-16T22:24:19.768Z,6.10
2019-04-16T22:27:06.943Z,6.00
2019-04-16T22:29:51.481Z,6.00
2019-04-16T22:32:37.197Z,6.00
2019-04-16T22:35:22.254Z,6.00
2019-04-16T22:38:07.334Z,6.00
2019-04-16T22:41:07.283Z,5.90
2019-04-16T22:44:17.678Z,5.90
2019-04-16T22:47:07.546Z,5.90
2019-04-16T22:49:56.715Z,5.80
2019-04-16T22:52:41.634Z,5.80
2019-04-16T22:55:27.642Z,5.70
2019-04-16T22:58:38.511Z,5.70
2019-04-16T23:01:24.786Z,5.70
2019-04-16T23:04:10.047Z,5.60
2019-04-16T23:06:55.694Z,5.60
2019-04-16T23:09:40.999Z,5.50
2019-04-16T23:12:28.141Z,5.50
2019-04-16T23:15:13.693Z,5.50
2019-04-16T23:17:59.373Z,5.50
2019-04-16T23:20:44.642Z,5.50
2019-04-16T23:23:29.775Z,5.50
2019-04-16T23:26:15.686Z,5.50
2019-04-16T23:29:01.090Z,5.50
2019-04-16T23:31:46.634Z,5.50
2019-04-16T23:34:34.904Z,5.50
2019-04-16T23:37:22.983Z,5.40
2019-04-16T23:40:07.484Z,5.40
2019-04-16T23:43:11.966Z,5.40
2019-04-16T23:46:08.579Z,5.30
2019-04-16T23:49:01.835Z,5.30
2019-04-16T23:52:03.469Z,5.20
2019-04-16T23:54:53.670Z,5.20
2019-04-16T23:58:01.080Z,5.20
